Time;durP1;ratioP1;P1;durP2;ratioP2;P2;SDS_P1;SDS_P2;PMS_P1;PMS_P2;Temp;Humidity;BMP_temperature;BMP_pressure;BME280_temperature;BME280_humidity;BME280_pressure;Samples;Min_cycle;Max_cycle;Signal;HPM_P1;HPM_P2
2023/03/02 00:00:27;;;;;;;9.52;4.97;;;;;;;1.65;59.69;102318.16;5091726;28;20062;-87
2023/03/02 00:02:52;;;;;;;8.25;5.05;;;;;;;1.57;59.30;102313.63;5091608;28;20052;-88
2023/03/02 00:05:18;;;;;;;8.32;4.90;;;;;;;1.60;59.76;102319.78;5068890;28;20106;-87
2023/03/02 00:07:43;;;;;;;11.40;5.63;;;;;;;1.56;59.90;102314.47;5073889;28;20479;-87
2023/03/02 00:10:09;;;;;;;9.63;5.45;;;;;;;1.57;60.47;102329.25;5072955;28;20016;-87
2023/03/02 00:12:35;;;;;;;10.02;5.05;;;;;;;1.55;60.87;102330.97;5091532;28;20068;-87
2023/03/02 00:15:00;;;;;;;9.55;5.95;;;;;;;1.45;61.54;102314.25;5089318;28;20024;-88
2023/03/02 00:17:28;;;;;;;11.50;5.57;;;;;;;1.47;60.20;102320.38;5073383;28;20394;-87
2023/03/02 00:19:58;;;;;;;8.25;5.25;;;;;;;1.46;60.67;102316.91;5091561;28;20115;-88
2023/03/02 00:22:24;;;;;;;10.38;5.93;;;;;;;1.50;59.88;102325.66;5073066;28;20479;-87
2023/03/02 00:24:49;;;;;;;10.98;5.57;;;;;;;1.51;60.37;102323.06;5079127;28;20078;-88
2023/03/02 00:27:14;;;;;;;12.88;5.57;;;;;;;1.49;60.87;102310.84;5072704;28;20414;-88
2023/03/02 00:29:41;;;;;;;10.15;5.63;;;;;;;1.53;59.63;102310.94;5073214;28;20020;-87
2023/03/02 00:32:07;;;;;;;8.70;4.88;;;;;;;1.51;60.21;102311.78;5072670;28;20020;-87
2023/03/02 00:34:33;;;;;;;8.40;4.78;;;;;;;1.45;61.70;102312.53;5091225;28;20057;-87
2023/03/02 00:36:58;;;;;;;10.73;6.00;;;;;;;1.44;61.29;102315.09;5091401;28;20066;-87
2023/03/02 00:39:23;;;;;;;9.80;5.30;;;;;;;1.43;62.09;102311.59;5091354;28;20034;-87
2023/03/02 00:41:49;;;;;;;9.57;5.55;;;;;;;1.47;61.79;102322.97;5090341;28;20024;-87
2023/03/02 00:44:16;;;;;;;9.32;5.47;;;;;;;1.37;60.67;102313.22;5090825;28;20028;-87
2023/03/02 00:46:41;;;;;;;12.45;5.72;;;;;;;1.40;60.81;102318.47;5073390;28;20023;-87
2023/03/02 00:49:07;;;;;;;9.52;5.95;;;;;;;1.41;60.70;102313.31;5091259;28;20020;-87
2023/03/02 00:51:32;;;;;;;8.48;5.15;;;;;;;1.47;59.84;102317.78;5090575;28;20544;-88
2023/03/02 00:54:01;;;;;;;10.90;5.63;;;;;;;1.47;61.00;102317.78;5086656;28;20044;-88
2023/03/02 00:56:26;;;;;;;9.40;5.63;;;;;;;1.50;59.67;102317.84;5090581;28;20024;-87
2023/03/02 00:58:51;;;;;;;9.10;5.32;;;;;;;1.49;59.54;102313.44;5072938;28;20073;-88
2023/03/02 01:01:17;;;;;;;10.50;5.70;;;;;;;1.56;59.31;102319.69;5072297;28;20043;-88
2023/03/02 01:03:42;;;;;;;9.80;5.25;;;;;;;1.48;60.73;102301.28;5090836;28;20111;-88
2023/03/02 01:06:19;;;;;;;8.80;5.57;;;;;;;1.59;60.51;102317.16;5072927;28;20031;-88
2023/03/02 01:08:45;;;;;;;8.20;5.45;;;;;;;1.39;60.05;102294.16;5072935;28;20502;-88
2023/03/02 01:11:19;;;;;;;8.30;5.00;;;;;;;1.35;60.11;102317.50;5090498;28;20051;-88
2023/03/02 01:13:45;;;;;;;10.18;5.43;;;;;;;1.39;61.35;102315.00;5056543;28;20036;-87
2023/03/02 01:16:11;;;;;;;8.98;5.15;;;;;;;1.39;61.26;102311.50;5061101;28;20028;-88
2023/03/02 01:18:37;;;;;;;10.68;5.25;;;;;;;1.38;60.88;102312.38;5072509;28;20101;-88
2023/03/02 01:21:21;;;;;;;9.20;5.50;;;;;;;1.32;60.15;102307.91;5072447;28;20020;-88
2023/03/02 01:23:46;;;;;;;9.48;5.50;;;;;;;1.26;60.09;102299.97;5090272;28;20031;-88
2023/03/02 01:26:11;;;;;;;8.93;5.43;;;;;;;1.19;61.80;102285.91;5090818;28;20119;-88
2023/03/02 01:28:36;;;;;;;9.90;5.97;;;;;;;1.26;62.20;102307.78;5072697;28;20031;-87
2023/03/02 01:31:03;;;;;;;11.70;5.93;;;;;;;1.20;61.79;102298.09;5090515;28;20039;-88
2023/03/02 01:33:29;;;;;;;10.63;5.68;;;;;;;1.12;60.76;102290.94;5090439;28;20028;-88
2023/03/02 01:35:54;;;;;;;9.23;5.45;;;;;;;0.99;62.67;102269.00;5072332;28;20031;-88
2023/03/02 01:38:19;;;;;;;11.25;5.82;;;;;;;0.95;61.48;102283.66;5090631;28;20023;-88
2023/03/02 01:40:45;;;;;;;10.93;6.55;;;;;;;0.95;61.95;102280.19;5090338;28;20035;-87
2023/03/02 01:43:13;;;;;;;8.52;5.10;;;;;;;1.05;62.84;102297.75;5058974;28;20013;-87
2023/03/02 01:45:46;;;;;;;10.45;6.00;;;;;;;1.07;62.21;102300.38;5066504;28;20019;-88
2023/03/02 01:48:15;;;;;;;9.38;5.97;;;;;;;0.93;62.13;102277.53;5072468;28;20150;-87
2023/03/02 01:50:41;;;;;;;10.30;5.90;;;;;;;0.95;62.91;102282.78;5090262;28;20020;-88
2023/03/02 01:53:07;;;;;;;9.55;6.20;;;;;;;0.98;62.44;102283.75;5072305;28;20035;-88
2023/03/02 01:55:33;;;;;;;10.52;5.90;;;;;;;0.86;62.23;102266.94;5075021;28;20161;-87
2023/03/02 01:58:01;;;;;;;11.23;6.78;;;;;;;0.94;62.48;102276.69;5076161;28;20114;-88
2023/03/02 02:00:30;;;;;;;9.75;5.97;;;;;;;0.94;62.83;102273.22;5075652;28;20169;-88
2023/03/02 02:03:07;;;;;;;10.25;6.28;;;;;;;0.97;62.69;102274.13;5075891;28;20035;-88
2023/03/02 02:05:35;;;;;;;10.75;6.13;;;;;;;0.92;63.30;102267.94;5093212;28;20026;-88
2023/03/02 02:08:01;;;;;;;10.13;6.47;;;;;;;0.99;62.65;102269.00;5094663;28;20031;-88
2023/03/02 02:10:27;;;;;;;15.43;6.50;;;;;;;0.97;63.65;102263.72;5093845;28;20024;-88
2023/03/02 02:12:52;;;;;;;11.07;6.32;;;;;;;0.84;63.57;102243.50;5094055;28;20172;-87
2023/03/02 02:15:18;;;;;;;13.63;6.43;;;;;;;0.94;63.45;102276.69;5062182;28;20032;-88
2023/03/02 02:17:43;;;;;;;13.45;6.78;;;;;;;0.94;63.60;102268.00;5075660;28;20024;-87
2023/03/02 02:20:37;;;;;;;13.02;7.07;;;;;;;0.83;62.91;102249.53;5075488;28;20502;-88
2023/03/02 02:23:22;;;;;;;13.02;6.82;;;;;;;0.87;62.86;102266.97;5075653;28;20024;-88
2023/03/02 02:25:57;;;;;;;11.80;6.75;;;;;;;0.79;63.28;102272.84;5084394;28;20026;-88
2023/03/02 02:28:34;;;;;;;11.70;6.53;;;;;;;0.77;63.56;102278.03;5093692;28;20024;-88
2023/03/02 02:31:33;;;;;;;13.25;7.22;;;;;;;0.73;63.82;102274.47;5093504;28;20066;-88
2023/03/02 02:34:22;;;;;;;15.35;7.35;;;;;;;0.71;63.74;102276.16;5079600;28;20024;-88
2023/03/02 02:36:51;;;;;;;11.32;6.85;;;;;;;0.67;64.87;102276.06;5075445;28;20020;-87
2023/03/02 02:39:28;;;;;;;14.32;7.00;;;;;;;0.57;64.41;102264.56;5093819;28;20065;-88
2023/03/02 02:41:57;;;;;;;12.80;7.40;;;;;;;0.52;64.82;102253.16;5075053;28;20114;-88
2023/03/02 02:44:22;;;;;;;11.80;7.60;;;;;;;0.56;65.41;102260.19;5093387;28;20024;-88
2023/03/02 02:46:48;;;;;;;15.95;7.70;;;;;;;0.53;65.39;102249.72;5075241;28;20024;-87
2023/03/02 02:49:35;;;;;;;17.92;9.18;;;;;;;0.65;65.10;102264.72;5075319;28;20020;-88
2023/03/02 02:52:02;;;;;;;16.55;8.85;;;;;;;0.60;65.93;102258.53;5063763;28;20509;-88
2023/03/02 02:54:29;;;;;;;17.20;9.55;;;;;;;0.53;66.23;102256.63;5091773;28;20514;-88
2023/03/02 02:56:57;;;;;;;17.75;9.20;;;;;;;0.46;67.87;102245.19;5093304;28;20515;-87
2023/03/02 02:59:34;;;;;;;21.20;10.68;;;;;;;0.43;67.49;102245.13;5092987;28;20027;-87
2023/03/02 03:02:00;;;;;;;20.83;10.90;;;;;;;0.33;68.65;102238.84;5074618;28;20122;-88
2023/03/02 03:04:28;;;;;;;20.88;11.02;;;;;;;0.42;69.90;102257.28;5088660;28;20110;-88
2023/03/02 03:06:58;;;;;;;25.15;11.57;;;;;;;0.43;70.21;102260.75;5085330;28;20491;-88
2023/03/02 03:09:24;;;;;;;24.73;11.52;;;;;;;0.44;69.65;102270.31;5092884;28;20036;-88
2023/03/02 03:11:56;;;;;;;27.67;13.15;;;;;;;0.44;70.07;102262.50;5092574;28;20382;-88
2023/03/02 03:14:27;;;;;;;26.15;13.55;;;;;;;0.44;70.34;102258.16;5057971;28;20387;-88
2023/03/02 03:16:52;;;;;;;29.88;14.45;;;;;;;0.43;70.67;102259.03;5086558;28;20028;-88
2023/03/02 03:19:23;;;;;;;28.13;13.80;;;;;;;0.42;70.98;102251.16;5075046;28;20046;-87
2023/03/02 03:21:53;;;;;;;30.83;15.57;;;;;;;0.43;71.73;102260.75;5092278;28;20357;-88
2023/03/02 03:24:19;;;;;;;33.55;13.95;;;;;;;0.37;71.31;102247.56;5089924;28;20024;-88
2023/03/02 03:26:45;;;;;;;31.25;15.05;;;;;;;0.42;71.73;102253.75;5087348;28;20077;-88
2023/03/02 03:29:12;;;;;;;33.30;15.95;;;;;;;0.36;72.14;102246.69;5092680;28;20077;-89
2023/03/02 03:31:37;;;;;;;32.60;15.82;;;;;;;0.41;72.10;102245.06;5092093;28;20030;-87
2023/03/02 03:34:03;;;;;;;33.38;15.75;;;;;;;0.25;72.46;102232.56;5074223;28;20103;-88
2023/03/02 03:36:30;;;;;;;36.78;16.40;;;;;;;0.32;72.73;102233.56;5096107;28;20028;-88
2023/03/02 03:38:56;;;;;;;33.20;15.25;;;;;;;0.35;72.70;102242.34;5092577;28;20039;-87
2023/03/02 03:41:21;;;;;;;36.75;16.33;;;;;;;0.24;72.93;102233.41;5092051;28;20028;-87
2023/03/02 03:43:47;;;;;;;34.38;15.70;;;;;;;0.24;72.92;102225.59;5083992;28;20028;-88
2023/03/02 03:46:12;;;;;;;34.47;15.25;;;;;;;0.28;73.26;102237.84;5086374;28;20098;-87
2023/03/02 03:48:38;;;;;;;35.38;15.98;;;;;;;0.28;73.43;102242.16;5074254;28;20399;-87
2023/03/02 03:51:03;;;;;;;35.35;16.83;;;;;;;0.16;73.52;102219.34;5073799;28;20016;-87
2023/03/02 03:53:29;;;;;;;36.28;16.45;;;;;;;0.31;73.71;102250.91;5092052;28;20552;-87
2023/03/02 03:55:56;;;;;;;40.00;17.15;;;;;;;0.25;73.52;102236.03;5091292;28;20043;-87
2023/03/02 03:58:23;;;;;;;40.17;17.77;;;;;;;0.30;74.14;102256.97;5073825;28;20020;-87
2023/03/02 04:00:49;;;;;;;35.70;17.20;;;;;;;0.21;74.17;102243.72;5090531;28;20028;-87
2023/03/02 04:03:14;;;;;;;40.40;17.48;;;;;;;0.31;74.07;102255.22;5091888;28;20370;-87
2023/03/02 04:05:40;;;;;;;39.83;18.25;;;;;;;0.23;73.95;102239.44;5063457;28;20115;-87
2023/03/02 04:08:06;;;;;;;39.88;18.58;;;;;;;0.29;73.92;102260.41;5091905;28;20032;-87
2023/03/02 04:10:32;;;;;;;36.25;16.88;;;;;;;0.22;74.44;102245.47;5073316;28;20390;-88
2023/03/02 04:13:01;;;;;;;41.88;18.70;;;;;;;0.27;74.57;102249.06;5073263;28;20097;-87
2023/03/02 04:15:26;;;;;;;37.25;16.83;;;;;;;0.30;73.86;102254.34;5065950;28;20039;-88
2023/03/02 04:17:52;;;;;;;32.42;16.20;;;;;;;0.25;74.17;102241.25;5090994;28;20042;-87
2023/03/02 04:20:18;;;;;;;40.28;18.05;;;;;;;0.31;74.33;102252.63;5091235;28;20028;-87
2023/03/02 04:22:46;;;;;;;36.45;16.83;;;;;;;0.32;73.72;102228.38;5091232;28;20028;-88
2023/03/02 04:25:12;;;;;;;38.17;17.30;;;;;;;0.34;73.45;102232.78;5086903;28;20475;-87
2023/03/02 04:27:38;;;;;;;39.90;17.92;;;;;;;0.44;73.35;102254.69;5091549;28;20472;-87
2023/03/02 04:30:05;;;;;;;36.88;16.25;;;;;;;0.41;73.61;102254.59;5091180;28;20215;-88
2023/03/02 04:32:30;;;;;;;35.90;16.77;;;;;;;0.38;73.77;102238.94;5091112;28;20031;-88
2023/03/02 04:34:55;;;;;;;35.47;16.02;;;;;;;0.36;73.50;102241.50;5089172;28;20383;-88
2023/03/02 04:37:20;;;;;;;36.60;16.33;;;;;;;0.34;73.29;102240.59;5073149;28;20037;-87
2023/03/02 04:39:50;;;;;;;39.20;17.27;;;;;;;0.16;74.22;102242.75;5072991;28;20023;-87
2023/03/02 04:42:15;;;;;;;41.42;17.52;;;;;;;0.26;73.62;102255.13;5072787;28;20074;-87
2023/03/02 04:44:40;;;;;;;38.47;17.48;;;;;;;0.34;73.55;102261.41;5070062;28;20032;-87
2023/03/02 04:47:06;;;;;;;36.63;17.20;;;;;;;0.12;73.97;102252.19;5081082;28;20474;-87
2023/03/02 04:49:31;;;;;;;37.67;17.63;;;;;;;0.08;73.74;102255.53;5103321;28;20038;-87
2023/03/02 04:51:56;;;;;;;38.63;16.45;;;;;;;0.07;74.15;102245.09;5072655;28;20024;-87
2023/03/02 04:54:24;;;;;;;39.33;15.93;;;;;;;-0.09;74.43;102221.31;5077307;28;20044;-87
2023/03/02 04:56:50;;;;;;;40.95;17.10;;;;;;;0.02;74.26;102244.97;5080563;28;20050;-88
2023/03/02 04:59:18;;;;;;;35.38;17.15;;;;;;;-0.04;74.80;102226.66;5072687;28;20448;-88
2023/03/02 05:01:45;;;;;;;40.42;16.90;;;;;;;0.13;74.22;102242.66;5090650;28;20028;-88
2023/03/02 05:04:11;;;;;;;35.10;15.55;;;;;;;0.15;74.16;102240.97;5072655;28;20024;-88
2023/03/02 05:06:36;;;;;;;36.10;16.08;;;;;;;0.02;74.77;102237.19;5080676;28;20020;-87
2023/03/02 05:09:03;;;;;;;35.47;16.00;;;;;;;0.01;74.54;102243.22;5084458;28;20089;-88
2023/03/02 05:11:29;;;;;;;39.03;17.15;;;;;;;-0.08;74.51;102236.06;5062199;28;20074;-87
2023/03/02 05:13:58;;;;;;;40.03;16.52;;;;;;;0.00;74.40;102251.88;5090906;28;20024;-88
2023/03/02 05:16:24;;;;;;;38.13;16.33;;;;;;;-0.03;74.61;102257.00;5073670;28;20024;-88
2023/03/02 05:18:50;;;;;;;36.83;15.65;;;;;;;-0.08;74.77;102262.06;5088047;28;20541;-87
2023/03/02 05:21:16;;;;;;;34.63;14.88;;;;;;;-0.23;74.11;102250.38;5072325;28;20024;-88
2023/03/02 05:23:42;;;;;;;37.33;16.55;;;;;;;-0.18;74.53;102261.78;5090639;28;20024;-88
2023/03/02 05:26:08;;;;;;;38.10;16.73;;;;;;;-0.45;74.91;102231.63;5090540;28;20020;-87
2023/03/02 05:28:34;;;;;;;39.65;17.73;;;;;;;-0.49;75.08;102241.88;5092397;28;20433;-87
2023/03/02 05:30:59;;;;;;;36.70;17.42;;;;;;;-0.53;75.23;102228.81;5076486;28;20475;-88
2023/03/02 05:33:25;;;;;;;41.47;16.40;;;;;;;-0.49;75.42;102241.88;5076540;28;20024;-88
2023/03/02 05:35:51;;;;;;;40.95;18.25;;;;;;;-0.60;75.76;102224.28;5076059;28;20095;-87
2023/03/02 05:38:16;;;;;;;42.88;17.67;;;;;;;-0.57;75.62;102226.94;5094855;28;20530;-87
2023/03/02 05:40:42;;;;;;;41.13;16.40;;;;;;;-0.56;76.28;102241.72;5076260;28;20502;-87
2023/03/02 05:43:09;;;;;;;37.63;15.52;;;;;;;-0.61;75.58;102235.50;5094494;28;20436;-87
2023/03/02 05:45:37;;;;;;;40.42;16.88;;;;;;;-0.54;76.16;102252.16;5093043;28;20026;-87
2023/03/02 05:48:02;;;;;;;44.55;19.20;;;;;;;-0.60;75.84;102245.06;5094786;28;20040;-88
2023/03/02 05:50:28;;;;;;;42.55;18.17;;;;;;;-0.56;75.25;102248.59;5094255;28;20027;-88
2023/03/02 05:52:53;;;;;;;39.45;17.58;;;;;;;-0.61;75.02;102240.69;5076154;28;20035;-87
2023/03/02 05:55:19;;;;;;;46.75;19.42;;;;;;;-0.64;75.99;102234.53;5075663;28;20067;-88
2023/03/02 05:57:45;;;;;;;44.22;17.33;;;;;;;-0.52;75.83;102245.25;5062782;28;20089;-88
2023/03/02 06:00:12;;;;;;;39.90;18.38;;;;;;;-0.62;75.82;102233.75;5094134;28;20424;-87
2023/03/02 06:02:38;;;;;;;42.70;18.63;;;;;;;-0.49;75.94;102236.69;5092334;28;20459;-88
2023/03/02 06:05:06;;;;;;;45.70;17.40;;;;;;;-0.68;75.76;102232.69;5094048;28;20078;-87
2023/03/02 06:07:31;;;;;;;51.22;20.73;;;;;;;-0.77;76.38;102231.59;5094061;28;20490;-88
2023/03/02 06:09:57;;;;;;;47.20;19.83;;;;;;;-0.73;76.65;102240.34;5075825;28;20024;-87
2023/03/02 06:12:22;;;;;;;44.58;18.42;;;;;;;-0.59;76.28;102244.22;5093693;28;20157;-87
2023/03/02 06:14:47;;;;;;;46.08;19.55;;;;;;;-0.54;76.14;102240.03;5074709;28;20031;-87
2023/03/02 06:17:13;;;;;;;48.83;19.90;;;;;;;-0.61;75.82;102206.91;5072020;28;20016;-88
2023/03/02 06:19:38;;;;;;;48.60;18.15;;;;;;;-0.57;75.87;102215.69;5093914;28;20031;-87
2023/03/02 06:22:03;;;;;;;47.42;19.65;;;;;;;-0.40;76.05;102239.53;5075329;28;20034;-88
2023/03/02 06:24:28;;;;;;;44.50;19.42;;;;;;;-0.28;75.95;102258.03;5093922;28;20063;-87
2023/03/02 06:26:54;;;;;;;50.60;19.27;;;;;;;-0.33;76.21;102257.03;5080117;28;20020;-87
2023/03/02 06:29:20;;;;;;;48.30;19.15;;;;;;;-0.34;76.32;102263.94;5093803;28;20035;-88
2023/03/02 06:31:46;;;;;;;47.95;20.35;;;;;;;-0.28;76.56;102250.25;5075093;28;20024;-88
2023/03/02 06:34:11;;;;;;;51.45;19.52;;;;;;;-0.50;76.96;102235.81;5093677;28;20511;-87
2023/03/02 06:36:37;;;;;;;57.10;20.83;;;;;;;-0.50;77.73;102245.31;5061640;28;20028;-88
2023/03/02 06:39:07;;;;;;;51.10;22.48;;;;;;;-0.41;77.61;102263.75;5093708;28;20028;-88
2023/03/02 06:41:32;;;;;;;54.22;20.75;;;;;;;-0.45;77.56;102252.41;5092329;28;20418;-87
2023/03/02 06:43:59;;;;;;;54.65;19.77;;;;;;;-0.42;78.05;102249.91;5075191;28;20040;-87
2023/03/02 06:46:24;;;;;;;50.42;20.00;;;;;;;-0.30;78.03;102265.81;5093002;28;20378;-87
2023/03/02 06:48:50;;;;;;;49.08;20.13;;;;;;;-0.32;77.97;102253.63;5093427;28;20024;-88
2023/03/02 06:51:15;;;;;;;59.90;21.70;;;;;;;-0.27;77.69;102260.69;5075014;28;20066;-87
2023/03/02 06:53:40;;;;;;;56.40;21.48;;;;;;;-0.30;77.48;102258.00;5093133;28;20036;-88
2023/03/02 06:56:06;;;;;;;47.42;18.73;;;;;;;-0.14;77.97;102272.31;5067361;28;20040;-87
2023/03/02 06:58:31;;;;;;;52.30;20.65;;;;;;;-0.06;77.38;102268.16;5075101;28;20043;-88
2023/03/02 07:00:57;;;;;;;48.35;18.67;;;;;;;-0.09;77.48;102267.22;5092739;28;20023;-88
2023/03/02 07:03:22;;;;;;;54.47;19.55;;;;;;;-0.07;77.29;102268.16;5074875;28;20043;-88
2023/03/02 07:05:48;;;;;;;60.45;22.13;;;;;;;0.09;77.17;102280.69;5087701;28;20066;-88
2023/03/02 07:08:14;;;;;;;55.03;21.92;;;;;;;0.15;76.81;102270.47;5075027;28;20024;-87
2023/03/02 07:10:39;;;;;;;54.17;22.38;;;;;;;0.28;76.69;102279.47;5074268;28;20376;-88
2023/03/02 07:13:04;;;;;;;55.53;21.90;;;;;;;0.11;76.73;102262.53;5093081;28;20039;-87
2023/03/02 07:15:29;;;;;;;51.33;20.63;;;;;;;0.00;77.06;102241.47;5072505;28;20023;-87
2023/03/02 07:17:55;;;;;;;50.65;20.48;;;;;;;0.22;76.89;102276.69;5074691;28;20063;-87
2023/03/02 07:20:20;;;;;;;48.70;19.63;;;;;;;0.22;76.76;102274.09;5092554;28;20036;-87
2023/03/02 07:22:46;;;;;;;52.08;18.58;;;;;;;0.42;76.40;102287.56;5092465;28;20494;-87
2023/03/02 07:25:11;;;;;;;43.33;18.58;;;;;;;0.55;76.21;102286.16;5074398;28;20394;-87
2023/03/02 07:27:37;;;;;;;50.30;19.08;;;;;;;0.67;75.77;102300.38;5083541;28;20044;-87
2023/03/02 07:30:04;;;;;;;47.33;19.48;;;;;;;0.71;75.42;102298.72;5070144;28;20637;-87
2023/03/02 07:32:29;;;;;;;47.45;19.73;;;;;;;0.79;75.04;102291.94;5092261;28;20028;-87
2023/03/02 07:34:54;;;;;;;44.50;18.63;;;;;;;0.86;75.19;102287.78;5092468;28;20077;-87
2023/03/02 07:37:20;;;;;;;51.22;20.92;;;;;;;0.73;75.61;102284.00;5074209;28;20070;-87
2023/03/02 07:39:47;;;;;;;49.00;19.52;;;;;;;0.78;75.66;102292.78;5074089;28;20300;-88
2023/03/02 07:42:13;;;;;;;49.22;18.65;;;;;;;0.83;75.76;102285.09;5092141;28;20024;-87
2023/03/02 07:44:39;;;;;;;49.15;18.92;;;;;;;0.90;75.52;102282.69;5089825;28;20459;-87
2023/03/02 07:47:04;;;;;;;48.28;18.58;;;;;;;0.81;75.42;102261.63;5089082;28;20031;-87
2023/03/02 07:49:29;;;;;;;51.40;19.67;;;;;;;1.14;74.95;102287.53;5092168;28;20478;-87
2023/03/02 07:51:55;;;;;;;41.75;18.60;;;;;;;1.24;74.23;102286.88;5073505;28;20012;-88
2023/03/02 07:54:20;;;;;;;52.33;19.77;;;;;;;1.33;73.86;102283.59;5073674;28;20083;-88
2023/03/02 07:56:46;;;;;;;48.08;19.60;;;;;;;1.39;73.45;102282.84;5091719;28;20429;-87
2023/03/02 07:59:12;;;;;;;44.83;18.77;;;;;;;1.50;72.88;102287.44;5091999;28;20057;-88
2023/03/02 08:01:37;;;;;;;47.20;18.33;;;;;;;1.55;72.72;102286.66;5091659;28;20020;-88
2023/03/02 08:04:02;;;;;;;47.65;18.52;;;;;;;1.59;72.40;102273.72;5073627;28;20434;-87
2023/03/02 08:06:28;;;;;;;45.80;19.02;;;;;;;1.72;72.07;102285.25;5089117;28;20442;-87
2023/03/02 08:08:53;;;;;;;47.50;19.98;;;;;;;1.80;72.11;102278.47;5073640;28;20031;-87
2023/03/02 08:11:18;;;;;;;43.85;18.48;;;;;;;1.93;72.22;102280.44;5091612;28;20019;-87
2023/03/02 08:13:45;;;;;;;42.08;18.45;;;;;;;2.19;71.32;102280.94;5091483;28;20082;-87
2023/03/02 08:16:12;;;;;;;42.85;18.27;;;;;;;2.66;69.74;102292.97;5073086;28;20035;-87
2023/03/02 08:18:38;;;;;;;37.92;17.67;;;;;;;2.97;68.82;102271.69;5091610;28;20120;-87
2023/03/02 08:21:10;;;;;;;42.25;17.17;;;;;;;3.27;68.39;102273.00;5091430;28;20077;-87
2023/03/02 08:23:35;;;;;;;41.92;16.05;;;;;;;3.59;66.43;102281.22;5091421;28;20038;-87
2023/03/02 08:26:01;;;;;;;43.28;17.05;;;;;;;4.01;65.00;102283.44;5065913;28;20016;-87
2023/03/02 08:28:26;;;;;;;37.55;14.85;;;;;;;4.44;63.73;102272.47;5087821;28;20042;-87
2023/03/02 08:31:01;;;;;;;33.95;16.13;;;;;;;4.84;62.06;102277.13;5091088;28;20089;-87
2023/03/02 08:33:28;;;;;;;34.55;15.70;;;;;;;5.14;59.78;102277.31;5091592;28;20103;-87
2023/03/02 08:36:05;;;;;;;35.83;15.00;;;;;;;5.45;60.38;102283.56;5085479;28;20032;-87
2023/03/02 08:38:32;;;;;;;33.95;15.90;;;;;;;5.69;58.77;102277.50;5078487;28;20024;-88
2023/03/02 08:40:57;;;;;;;27.98;14.20;;;;;;;5.67;57.60;102261.78;5074536;28;20024;-88
2023/03/02 08:43:25;;;;;;;33.40;15.40;;;;;;;5.85;56.82;102267.06;5076642;28;20081;-88
2023/03/02 08:45:52;;;;;;;29.58;14.02;;;;;;;6.49;55.12;102271.56;5087897;28;20020;-88
2023/03/02 08:48:18;;;;;;;34.63;15.40;;;;;;;7.10;53.55;102267.97;5073515;28;20107;-87
2023/03/02 08:50:44;;;;;;;32.85;14.85;;;;;;;7.54;51.23;102270.41;5094040;28;20028;-88
2023/03/02 08:53:09;;;;;;;33.00;15.90;;;;;;;8.24;49.89;102270.88;5073446;28;20039;-87
2023/03/02 08:55:35;;;;;;;30.90;14.35;;;;;;;8.84;48.63;102258.94;5090910;28;20043;-87
2023/03/02 08:58:02;;;;;;;31.85;14.27;;;;;;;9.59;47.23;102265.09;5092614;28;20198;-87
2023/03/02 09:00:27;;;;;;;25.45;12.68;;;;;;;10.20;45.10;102265.06;5074220;28;20501;-87
2023/03/02 09:02:52;;;;;;;30.52;14.32;;;;;;;10.63;43.77;102271.47;5091087;28;20056;-88
2023/03/02 09:05:18;;;;;;;27.90;13.25;;;;;;;11.08;43.05;102268.88;5073380;28;20028;-87
2023/03/02 09:07:43;;;;;;;26.88;12.75;;;;;;;11.29;40.83;102262.31;5089817;28;20012;-88
2023/03/02 09:10:09;;;;;;;26.50;13.52;;;;;;;11.71;39.84;102256.09;5091263;28;20024;-88
2023/03/02 09:12:34;;;;;;;26.65;14.10;;;;;;;12.40;39.38;102246.53;5091366;28;20020;-87
2023/03/02 09:14:59;;;;;;;25.77;13.63;;;;;;;13.21;39.00;102244.34;5073334;28;20028;-87
2023/03/02 09:17:25;;;;;;;25.45;12.50;;;;;;;13.63;35.74;102249.34;5092382;28;20023;-87
2023/03/02 09:19:50;;;;;;;27.23;13.80;;;;;;;14.01;36.86;102260.56;5091060;28;20034;-88
2023/03/02 09:22:15;;;;;;;24.90;13.27;;;;;;;14.44;35.35;102254.69;5090929;28;20514;-87
2023/03/02 09:24:41;;;;;;;28.25;12.98;;;;;;;14.85;34.59;102249.78;5091229;28;20020;-87
2023/03/02 09:27:06;;;;;;;27.25;12.82;;;;;;;14.82;32.30;102244.56;5081029;28;20108;-88
2023/03/02 09:29:31;;;;;;;28.67;13.13;;;;;;;15.22;32.51;102245.78;5093000;28;20494;-88
2023/03/02 09:31:56;;;;;;;25.10;11.98;;;;;;;15.52;32.38;102244.59;5091194;28;20066;-88
2023/03/02 09:34:22;;;;;;;23.45;12.45;;;;;;;15.56;31.86;102250.69;5072961;28;20042;-89
2023/03/02 09:36:47;;;;;;;23.52;11.52;;;;;;;15.64;32.16;102239.78;5090720;28;20029;-88
2023/03/02 09:39:12;;;;;;;25.83;12.52;;;;;;;15.97;31.15;102240.25;5091020;28;20423;-88
2023/03/02 09:41:46;;;;;;;25.50;12.80;;;;;;;16.49;29.99;102246.09;5091189;28;20540;-89
2023/03/02 09:44:24;;;;;;;20.50;11.02;;;;;;;17.05;30.69;102245.44;5073209;28;20485;-89
2023/03/02 09:47:02;;;;;;;22.92;12.40;;;;;;;17.66;29.97;102231.03;5090344;28;20026;-89
2023/03/02 09:49:46;;;;;;;20.77;10.50;;;;;;;18.19;28.15;102239.19;5072345;28;20036;-89
2023/03/02 09:52:36;;;;;;;24.17;12.00;;;;;;;18.89;26.77;102234.72;5090264;28;20392;-89
2023/03/02 09:55:15;;;;;;;18.95;10.77;;;;;;;19.08;27.72;102239.97;5090376;28;20089;-89
2023/03/02 09:57:41;;;;;;;21.33;11.77;;;;;;;19.10;25.64;102228.19;5090104;28;20031;-89
2023/03/02 10:00:13;;;;;;;21.13;11.10;;;;;;;18.73;25.86;102229.28;5090156;28;20055;-88
2023/03/02 10:02:48;;;;;;;;;;;;;;;19.23;25.70;102230.22;5090508;28;20032;-90
2023/03/02 10:05:21;;;;;;;19.30;10.85;;;;;;;19.21;25.44;102233.00;5090622;28;19998;-89
2023/03/02 10:07:47;;;;;;;17.77;10.27;;;;;;;19.06;24.20;102215.03;5077587;28;20034;-89
2023/03/02 10:10:27;;;;;;;16.88;9.88;;;;;;;19.16;25.34;102232.34;5072072;28;20107;-89
2023/03/02 10:13:04;;;;;;;19.88;10.85;;;;;;;20.02;24.32;102238.34;5090152;28;20088;-89
2023/03/02 10:16:08;;;;;;;14.48;8.82;;;;;;;20.89;25.09;102230.50;5091551;28;20149;-88
2023/03/02 10:18:45;;;;;;;16.33;9.13;;;;;;;21.35;22.93;102233.88;5093949;28;20027;-89
2023/03/02 10:21:24;;;;;;;16.83;9.70;;;;;;;21.30;22.68;102229.72;5093588;28;20074;-89
2023/03/02 10:24:07;;;;;;;16.33;9.50;;;;;;;21.12;22.56;102231.72;5093676;28;20028;-90
2023/03/02 10:26:39;;;;;;;16.27;9.85;;;;;;;21.06;21.69;102234.81;5086061;28;20071;-90
2023/03/02 10:29:21;;;;;;;16.63;9.35;;;;;;;20.41;24.15;102234.28;5093996;28;20475;-90
2023/03/02 10:31:51;;;;;;;;;;;;;;;21.09;23.31;102237.31;5093902;28;20047;-90
2023/03/02 10:34:17;;;;;;;16.90;9.98;;;;;;;20.70;20.82;102222.66;5093584;28;20357;-91
2023/03/02 10:36:43;;;;;;;14.73;9.82;;;;;;;20.71;22.20;102227.09;5074911;28;20020;-90
2023/03/02 10:39:13;;;;;;;17.08;10.05;;;;;;;20.88;22.82;102234.13;5093789;28;20039;-89
2023/03/02 10:42:01;;;;;;;18.83;10.23;;;;;;;20.93;23.04;102228.47;5075117;28;20063;-90
2023/03/02 10:44:41;;;;;;;17.05;10.23;;;;;;;21.04;21.83;102208.03;5093157;28;20028;-89
2023/03/02 10:47:07;;;;;;;17.13;9.65;;;;;;;20.60;21.11;102218.81;5075165;28;20024;-89
2023/03/02 10:49:41;;;;;;;15.05;9.82;;;;;;;20.81;21.94;102216.66;5074993;28;20028;-90
2023/03/02 10:52:15;;;;;;;19.40;11.30;;;;;;;21.24;20.59;102206.78;5074964;28;20395;-89
2023/03/02 10:54:41;;;;;;;17.73;10.60;;;;;;;21.03;20.91;102200.94;5092741;28;20487;-90
2023/03/02 10:57:36;;;;;;;16.75;10.15;;;;;;;21.47;22.72;102212.53;5092939;28;20024;-89
2023/03/02 11:00:04;;;;;;;18.00;11.15;;;;;;;22.57;21.09;102207.88;5092043;28;20559;-89
2023/03/02 11:02:33;;;;;;;16.95;9.85;;;;;;;22.51;20.69;102211.03;5092721;28;20486;-90
2023/03/02 11:05:20;;;;;;;16.73;10.27;;;;;;;23.23;19.59;102209.56;5075020;28;20387;-90
2023/03/02 11:07:53;;;;;;;16.42;10.73;;;;;;;23.38;20.26;102213.84;5074404;28;20523;-90
2023/03/02 11:10:21;;;;;;;19.08;10.73;;;;;;;23.43;20.76;102200.00;5092748;28;20028;-90
2023/03/02 11:12:49;;;;;;;16.75;11.48;;;;;;;23.14;20.69;102199.44;5092682;28;20029;-90
2023/03/02 11:15:20;;;;;;;18.52;10.85;;;;;;;22.79;20.87;102204.56;5074731;28;20031;-89
2023/03/02 11:17:52;;;;;;;18.25;11.48;;;;;;;22.83;21.21;102196.16;5065766;28;20103;-90
2023/03/02 11:20:24;;;;;;;19.70;11.60;;;;;;;23.13;21.08;102209.34;5092657;28;20111;-89